Time;durP1;ratioP1;P1;durP2;ratioP2;P2;SDS_P1;SDS_P2;PMS_P1;PMS_P2;Temp;Humidity;BMP_temperature;BMP_pressure;BME280_temperature;BME280_humidity;BME280_pressure;Samples;Min_cycle;Max_cycle;Signal;HPM_P1;HPM_P2
2023/08/07 00:00:50;;;;;;;1.70;1.23;;;17.40;76.20;;;;;;4975967;28;20046;-69
2023/08/07 00:03:19;;;;;;;1.65;1.30;;;17.40;76.00;;;;;;4975950;28;20027;-69
2023/08/07 00:05:46;;;;;;;1.55;1.13;;;17.30;75.70;;;;;;4975952;28;20106;-68
2023/08/07 00:08:12;;;;;;;1.33;1.00;;;17.30;75.80;;;;;;4975888;28;20085;-68
2023/08/07 00:10:38;;;;;;;1.13;1.02;;;17.30;75.80;;;;;;4975606;28;20114;-68
2023/08/07 00:13:05;;;;;;;1.20;1.10;;;17.30;75.70;;;;;;4976123;28;20031;-69
2023/08/07 00:15:33;;;;;;;1.38;1.20;;;17.20;75.60;;;;;;4976003;28;20037;-69
2023/08/07 00:17:59;;;;;;;2.08;1.40;;;17.20;75.70;;;;;;4975719;28;20084;-68
2023/08/07 00:20:25;;;;;;;1.38;0.82;;;17.10;76.10;;;;;;4975844;28;20050;-68
2023/08/07 00:22:54;;;;;;;1.00;1.00;;;17.10;75.90;;;;;;4976366;28;20034;-68
2023/08/07 00:27:45;;;;;;;2.58;1.45;;;17.00;75.90;;;;;;4978241;28;20081;-68
2023/08/07 00:30:12;;;;;;;1.33;1.00;;;17.00;75.80;;;;;;4979199;28;20035;-68
2023/08/07 00:32:37;;;;;;;1.70;0.80;;;16.90;75.90;;;;;;4979263;28;20059;-69
2023/08/07 00:35:05;;;;;;;2.22;1.25;;;16.90;75.90;;;;;;4979086;28;20045;-68
2023/08/07 00:37:31;;;;;;;4.95;1.23;;;16.90;76.00;;;;;;4979396;28;20082;-68
2023/08/07 00:39:57;;;;;;;2.00;1.30;;;16.90;76.00;;;;;;4979043;28;20031;-68
2023/08/07 00:42:23;;;;;;;3.40;1.17;;;16.90;76.10;;;;;;4978978;28;20023;-68
2023/08/07 00:44:52;;;;;;;1.10;0.90;;;16.80;76.50;;;;;;4979008;28;20082;-69
2023/08/07 00:47:20;;;;;;;2.38;1.38;;;16.80;76.50;;;;;;4978886;28;20441;-68
2023/08/07 00:49:47;;;;;;;1.75;0.90;;;16.70;76.70;;;;;;4978757;28;20041;-68
2023/08/07 00:52:15;;;;;;;1.65;1.20;;;16.70;76.30;;;;;;4979366;28;20035;-69
2023/08/07 00:54:42;;;;;;;1.27;1.15;;;16.60;76.30;;;;;;4978682;28;20062;-69
2023/08/07 00:57:11;;;;;;;1.35;1.20;;;16.60;76.40;;;;;;4979353;28;20041;-67
2023/08/07 00:59:38;;;;;;;3.15;1.08;;;16.60;76.20;;;;;;4978629;28;20489;-68
2023/08/07 01:02:13;;;;;;;0.90;0.90;;;16.60;76.40;;;;;;4978854;28;20074;-68
2023/08/07 01:04:41;;;;;;;2.33;1.10;;;16.50;76.20;;;;;;4978593;28;20031;-69
2023/08/07 01:07:09;;;;;;;1.33;1.10;;;16.50;76.30;;;;;;4978575;28;20093;-68
2023/08/07 01:09:43;;;;;;;2.80;1.40;;;16.50;76.30;;;;;;4978444;28;20050;-68
2023/08/07 01:12:22;;;;;;;1.58;1.35;;;16.50;76.30;;;;;;4978350;28;20042;-69
2023/08/07 01:14:56;;;;;;;1.90;1.13;;;16.50;76.10;;;;;;4978630;28;20031;-69
2023/08/07 01:17:23;;;;;;;1.58;1.35;;;16.40;76.20;;;;;;4978947;28;20023;-69
2023/08/07 01:19:53;;;;;;;2.05;1.00;;;16.40;76.30;;;;;;4978334;28;20114;-68
2023/08/07 01:22:22;;;;;;;1.08;0.98;;;16.40;76.20;;;;;;4978308;28;20037;-68
2023/08/07 01:28:01;;;;;;;1.85;0.90;;;16.40;76.40;;;;;;4978988;28;20337;-68
2023/08/07 01:30:55;;;;;;;1.10;1.00;;;16.40;76.30;;;;;;4918907;29;20048;-68
2023/08/07 01:33:32;;;;;;;0.98;0.88;;;16.40;76.30;;;;;;4919478;29;20492;-68
2023/08/07 01:36:01;;;;;;;2.78;1.33;;;16.40;76.20;;;;;;4919109;29;20447;-68
2023/08/07 01:38:28;;;;;;;1.17;1.10;;;16.30;76.30;;;;;;4918772;29;20024;-68
2023/08/07 01:40:58;;;;;;;2.35;1.17;;;16.30;76.10;;;;;;4918726;29;20157;-68
2023/08/07 01:43:26;;;;;;;1.05;0.95;;;16.20;76.10;;;;;;4918780;29;20043;-69
2023/08/07 01:45:52;;;;;;;1.55;0.90;;;16.20;76.10;;;;;;4918734;29;20453;-68
2023/08/07 01:48:20;;;;;;;3.00;0.90;;;16.10;76.10;;;;;;4919190;29;20063;-68
2023/08/07 01:50:47;;;;;;;0.85;0.85;;;16.10;76.10;;;;;;4919143;29;20059;-68
2023/08/07 01:53:25;;;;;;;1.20;0.90;;;16.10;76.10;;;;;;4903334;29;20044;-69
2023/08/07 01:55:51;;;;;;;1.52;1.10;;;16.00;76.10;;;;;;4918761;29;20123;-67
2023/08/07 01:58:19;;;;;;;2.03;1.35;;;16.00;76.20;;;;;;4918417;29;20103;-68
2023/08/07 02:00:47;;;;;;;3.80;1.00;;;15.90;76.40;;;;;;4918606;29;20060;-69
2023/08/07 02:03:15;;;;;;;3.90;1.88;;;15.90;76.40;;;;;;4918373;29;20031;-68
2023/08/07 02:05:48;;;;;;;2.05;1.10;;;15.90;76.40;;;;;;4922722;28;20031;-68
2023/08/07 02:08:16;;;;;;;2.53;1.20;;;15.80;76.50;;;;;;4977935;28;20097;-68
2023/08/07 02:10:44;;;;;;;2.15;0.80;;;15.80;76.40;;;;;;4976957;28;20145;-69
2023/08/07 02:13:10;;;;;;;1.80;1.20;;;15.80;76.40;;;;;;4977338;28;20026;-68
2023/08/07 02:15:44;;;;;;;3.22;1.30;;;15.80;76.40;;;;;;4977451;28;20041;-67
2023/08/07 02:18:13;;;;;;;1.98;1.08;;;15.80;76.40;;;;;;4977213;28;20022;-67
2023/08/07 02:20:40;;;;;;;1.02;1.00;;;15.80;76.30;;;;;;4977719;28;20106;-68
2023/08/07 02:23:08;;;;;;;1.17;1.08;;;15.80;76.20;;;;;;4977145;28;20098;-67
2023/08/07 02:25:35;;;;;;;2.08;1.33;;;15.80;76.10;;;;;;4977334;28;20116;-69
2023/08/07 02:28:04;;;;;;;1.55;1.00;;;15.80;76.20;;;;;;4977505;28;20027;-68
2023/08/07 02:30:32;;;;;;;1.00;1.00;;;15.80;76.00;;;;;;4977574;28;20054;-68
2023/08/07 02:32:58;;;;;;;2.35;0.95;;;15.70;76.00;;;;;;4976886;28;20102;-68
2023/08/07 02:35:26;;;;;;;1.40;0.85;;;15.60;75.90;;;;;;4976909;28;20030;-68
2023/08/07 02:37:55;;;;;;;2.15;1.00;;;15.60;76.00;;;;;;4976856;28;20059;-67
2023/08/07 02:40:21;;;;;;;1.10;1.00;;;15.50;76.10;;;;;;4976883;28;20105;-67
2023/08/07 02:42:47;;;;;;;2.67;1.10;;;15.40;76.20;;;;;;4976858;28;20102;-68
2023/08/07 02:45:13;;;;;;;2.40;0.90;;;15.40;76.20;;;;;;4977071;28;20540;-68
2023/08/07 02:47:40;;;;;;;2.45;1.20;;;15.30;76.20;;;;;;4977024;28;20453;-68
2023/08/07 02:50:07;;;;;;;1.70;1.10;;;15.30;76.40;;;;;;4976172;28;20512;-68
2023/08/07 02:52:32;;;;;;;1.45;0.98;;;15.20;76.40;;;;;;4976418;28;20429;-68
2023/08/07 02:55:01;;;;;;;0.85;0.80;;;15.20;76.30;;;;;;4976852;28;20027;-68
2023/08/07 02:57:27;;;;;;;1.85;1.00;;;15.20;76.40;;;;;;4991971;28;20093;-68
2023/08/07 02:59:55;;;;;;;2.17;1.17;;;15.10;76.30;;;;;;4976518;28;20453;-69
2023/08/07 03:02:23;;;;;;;1.10;1.00;;;15.10;76.30;;;;;;4976504;28;20059;-69
2023/08/07 03:04:55;;;;;;;1.02;0.90;;;15.10;76.40;;;;;;4976430;28;20026;-68
2023/08/07 03:07:23;;;;;;;2.08;0.88;;;15.10;76.30;;;;;;4976567;28;20018;-68
2023/08/07 03:09:49;;;;;;;0.95;0.90;;;15.00;76.40;;;;;;4976892;28;20389;-68
2023/08/07 03:12:15;;;;;;;1.20;0.88;;;15.00;76.50;;;;;;4976256;28;20059;-68
2023/08/07 03:14:41;;;;;;;0.98;0.90;;;15.00;76.50;;;;;;4976310;28;20027;-67
2023/08/07 03:17:07;;;;;;;1.63;1.10;;;14.90;76.50;;;;;;4976371;28;20353;-69
2023/08/07 03:19:33;;;;;;;1.85;1.00;;;14.90;76.60;;;;;;4976579;28;20080;-70
2023/08/07 03:21:59;;;;;;;2.03;1.20;;;14.90;76.60;;;;;;4976893;28;20147;-70
2023/08/07 03:24:25;;;;;;;1.30;1.20;;;14.90;76.60;;;;;;4976338;28;20462;-68
2023/08/07 03:26:51;;;;;;;2.17;1.40;;;14.90;76.60;;;;;;4976283;28;20027;-67
2023/08/07 03:29:17;;;;;;;2.22;1.60;;;14.90;76.60;;;;;;4976943;28;20035;-67
2023/08/07 03:31:42;;;;;;;1.65;1.50;;;14.90;76.70;;;;;;4976502;28;20046;-70
2023/08/07 03:34:08;;;;;;;4.15;2.47;;;14.90;76.80;;;;;;4976694;28;20057;-67
2023/08/07 03:36:34;;;;;;;2.20;1.90;;;14.90;76.90;;;;;;4976192;28;20019;-67
2023/08/07 03:39:00;;;;;;;3.25;1.65;;;14.90;76.80;;;;;;4976301;28;20086;-67
2023/08/07 03:41:27;;;;;;;2.80;2.13;;;14.80;76.90;;;;;;4976405;28;20422;-69
2023/08/07 03:43:53;;;;;;;2.22;2.03;;;14.70;76.90;;;;;;4976108;28;20437;-69
2023/08/07 03:46:19;;;;;;;3.60;2.45;;;14.70;76.90;;;;;;4991337;28;20104;-69
2023/08/07 03:48:46;;;;;;;2.78;2.22;;;14.60;77.60;;;;;;4976325;28;20050;-69
2023/08/07 03:51:11;;;;;;;3.30;2.10;;;14.50;77.40;;;;;;4975116;28;20065;-70
2023/08/07 03:53:37;;;;;;;2.10;1.83;;;14.50;77.60;;;;;;4976331;28;20039;-68
2023/08/07 03:56:04;;;;;;;3.90;2.42;;;14.50;77.50;;;;;;4976163;28;20046;-70
2023/08/07 03:58:30;;;;;;;2.42;1.80;;;14.50;77.40;;;;;;4976143;28;20085;-70
2023/08/07 04:00:56;;;;;;;1.92;1.83;;;14.50;77.40;;;;;;4976034;28;20054;-70
2023/08/07 04:03:24;;;;;;;2.03;1.80;;;14.50;77.50;;;;;;4979530;28;20105;-69
2023/08/07 04:05:53;;;;;;;2.47;1.70;;;14.50;77.50;;;;;;4979690;28;20407;-70
2023/08/07 04:08:22;;;;;;;3.67;2.10;;;14.40;77.50;;;;;;4979581;28;20073;-69
2023/08/07 04:11:05;;;;;;;2.17;1.98;;;14.50;77.50;;;;;;4979085;28;20106;-69
2023/08/07 04:13:33;;;;;;;2.77;2.03;;;14.50;77.40;;;;;;4979911;28;20027;-70
2023/08/07 04:16:04;;;;;;;1.98;1.77;;;14.50;77.40;;;;;;4979504;28;20038;-70
2023/08/07 04:18:32;;;;;;;2.55;1.80;;;14.50;77.40;;;;;;4979400;28;20026;-69
2023/08/07 04:21:00;;;;;;;2.83;2.10;;;14.50;77.40;;;;;;4979990;28;20031;-70
2023/08/07 04:23:28;;;;;;;1.70;1.60;;;14.60;77.30;;;;;;4979421;28;20027;-70
2023/08/07 04:25:55;;;;;;;1.77;1.55;;;14.60;77.30;;;;;;4979807;28;20074;-69
2023/08/07 04:28:24;;;;;;;2.42;1.52;;;14.60;77.20;;;;;;4979254;28;20027;-69
2023/08/07 04:30:53;;;;;;;1.80;1.70;;;14.60;77.20;;;;;;4979740;28;20030;-70
2023/08/07 04:33:21;;;;;;;2.58;2.33;;;14.70;77.10;;;;;;4979737;28;20031;-70
2023/08/07 04:38:15;;;;;;;2.33;2.00;;;14.70;76.90;;;;;;4979818;28;20034;-70
2023/08/07 04:40:50;;;;;;;2.20;2.00;;;14.70;76.90;;;;;;4979355;28;20015;-68
2023/08/07 04:43:21;;;;;;;3.65;2.17;;;14.70;76.90;;;;;;4979329;28;20093;-69
2023/08/07 04:45:53;;;;;;;2.28;2.08;;;14.80;76.90;;;;;;4978902;28;20442;-69
2023/08/07 04:48:20;;;;;;;3.88;2.45;;;14.80;76.80;;;;;;4978900;28;20027;-69
2023/08/07 04:50:49;;;;;;;3.80;2.40;;;14.90;76.90;;;;;;4978840;28;20450;-69
2023/08/07 04:53:28;;;;;;;4.05;2.35;;;14.90;77.00;;;;;;4978805;28;20031;-69
2023/08/07 04:56:04;;;;;;;5.35;2.10;;;15.20;77.60;;;;;;4979022;28;20034;-70
2023/08/07 04:58:32;;;;;;;2.42;2.20;;;16.40;76.70;;;;;;4979008;28;20019;-69
2023/08/07 05:01:00;;;;;;;2.28;2.08;;;18.00;73.80;;;;;;4979178;28;20085;-70
2023/08/07 05:03:28;;;;;;;3.22;2.20;;;19.70;70.80;;;;;;4978593;28;20037;-69
2023/08/07 05:06:01;;;;;;;2.53;1.80;;;21.50;67.00;;;;;;4978537;28;20134;-70
2023/08/07 05:08:27;;;;;;;2.35;2.13;;;23.00;62.50;;;;;;4978446;28;20023;-67
2023/08/07 05:10:54;;;;;;;2.75;1.92;;;24.50;60.00;;;;;;4978082;28;20059;-67
2023/08/07 05:13:22;;;;;;;2.30;1.92;;;26.00;56.40;;;;;;4977951;28;20034;-68
2023/08/07 05:15:48;;;;;;;3.30;1.80;;;27.30;53.50;;;;;;4978246;28;20054;-67
2023/08/07 05:18:16;;;;;;;2.55;1.83;;;28.40;50.80;;;;;;4978515;28;20033;-67
2023/08/07 05:20:44;;;;;;;1.80;1.70;;;29.40;48.40;;;;;;4978297;28;20037;-67
2023/08/07 05:23:21;;;;;;;2.08;1.73;;;30.30;46.80;;;;;;4978081;28;20050;-67
2023/08/07 05:25:49;;;;;;;3.42;2.03;;;31.30;44.80;;;;;;4978737;28;20042;-67
2023/08/07 05:28:15;;;;;;;3.30;1.75;;;32.40;43.60;;;;;;4978103;28;20030;-67
2023/08/07 05:30:43;;;;;;;1.48;1.38;;;33.40;42.20;;;;;;4978110;28;20026;-67
2023/08/07 05:33:11;;;;;;;1.48;1.20;;;34.30;41.20;;;;;;4978091;28;20031;-67
2023/08/07 05:35:39;;;;;;;3.97;1.60;;;35.00;39.60;;;;;;4977928;28;20027;-67
2023/08/07 05:38:05;;;;;;;2.53;1.70;;;35.80;38.40;;;;;;4978121;28;20018;-68
2023/08/07 05:40:31;;;;;;;1.73;1.60;;;36.30;36.90;;;;;;4977936;28;20109;-68
2023/08/07 05:42:57;;;;;;;3.88;1.80;;;36.80;35.80;;;;;;4978137;28;20446;-68
2023/08/07 05:45:23;;;;;;;2.13;1.50;;;37.40;35.50;;;;;;4978070;28;20106;-67
2023/08/07 05:47:49;;;;;;;2.83;1.35;;;37.90;34.00;;;;;;4977778;28;20110;-67
2023/08/07 05:50:15;;;;;;;3.85;1.80;;;38.30;33.40;;;;;;4977675;28;20351;-67
2023/08/07 05:52:41;;;;;;;3.85;1.70;;;38.80;33.20;;;;;;4977725;28;20026;-68
2023/08/07 05:55:08;;;;;;;2.53;1.45;;;39.50;32.40;;;;;;4978048;28;20027;-68
2023/08/07 05:57:34;;;;;;;4.35;1.58;;;40.10;31.60;;;;;;4977864;28;20031;-68
2023/08/07 06:00:02;;;;;;;3.17;1.40;;;40.90;31.10;;;;;;4977784;28;20011;-68
2023/08/07 06:02:30;;;;;;;1.67;1.23;;;41.60;30.40;;;;;;4978041;28;20055;-67
2023/08/07 06:04:59;;;;;;;2.33;1.00;;;42.30;29.60;;;;;;4977415;28;20067;-68
2023/08/07 06:07:26;;;;;;;3.58;2.40;;;42.90;28.70;;;;;;4977360;28;20027;-67
2023/08/07 06:09:53;;;;;;;2.25;1.50;;;43.40;28.20;;;;;;4977577;28;20056;-67
2023/08/07 06:12:21;;;;;;;2.47;1.95;;;44.00;27.60;;;;;;4976163;28;20440;-68
2023/08/07 06:14:47;;;;;;;5.93;4.65;;;44.50;27.10;;;;;;4977106;28;20373;-68
2023/08/07 06:17:13;;;;;;;7.72;5.20;;;44.90;26.40;;;;;;4977223;28;20034;-68
2023/08/07 06:19:39;;;;;;;8.52;6.32;;;45.10;25.90;;;;;;4976189;28;20357;-68
2023/08/07 06:22:05;;;;;;;9.52;6.72;;;45.30;25.40;;;;;;4977708;28;20023;-68
2023/08/07 06:24:31;;;;;;;8.70;5.97;;;45.70;24.60;;;;;;4976055;28;20030;-69
2023/08/07 06:26:57;;;;;;;8.77;5.85;;;45.90;24.60;;;;;;4977370;28;20461;-68
2023/08/07 06:29:23;;;;;;;10.75;5.93;;;46.20;24.50;;;;;;4976918;28;20039;-68
2023/08/07 06:31:49;;;;;;;2.92;2.22;;;46.60;24.60;;;;;;4977273;28;20357;-69
2023/08/07 06:34:15;;;;;;;2.50;1.70;;;46.90;24.40;;;;;;4976795;28;20484;-68
2023/08/07 06:36:41;;;;;;;3.05;2.58;;;47.20;23.80;;;;;;4977035;28;20046;-68
2023/08/07 06:39:07;;;;;;;1.98;1.40;;;47.50;24.20;;;;;;4976617;28;20027;-68
2023/08/07 06:41:33;;;;;;;3.03;2.72;;;47.70;23.90;;;;;;4977168;28;20101;-69
2023/08/07 06:44:00;;;;;;;2.30;1.75;;;47.90;23.60;;;;;;4976914;28;20037;-68
2023/08/07 06:46:28;;;;;;;3.28;1.40;;;47.90;22.90;;;;;;4976848;28;20034;-69
2023/08/07 06:48:56;;;;;;;3.67;1.52;;;48.00;23.40;;;;;;4976695;28;20457;-69
2023/08/07 06:51:24;;;;;;;3.33;2.03;;;48.10;23.40;;;;;;4976938;28;20031;-69
2023/08/07 06:53:50;;;;;;;1.85;1.38;;;48.10;22.50;;;;;;4976624;28;20027;-68
2023/08/07 06:56:16;;;;;;;4.30;1.10;;;47.90;21.90;;;;;;4976601;28;20330;-69
2023/08/07 06:58:42;;;;;;;1.30;1.20;;;47.70;22.30;;;;;;4976579;28;20027;-69
2023/08/07 07:01:08;;;;;;;2.00;1.02;;;47.70;22.80;;;;;;4976626;28;20061;-69
2023/08/07 07:03:34;;;;;;;1.88;1.20;;;47.70;22.90;;;;;;4977099;28;20034;-69
2023/08/07 07:06:01;;;;;;;2.33;1.00;;;47.70;22.90;;;;;;4976714;28;20350;-68
2023/08/07 07:08:27;;;;;;;1.17;0.90;;;47.70;22.50;;;;;;4976838;28;20038;-69
2023/08/07 07:10:53;;;;;;;0.90;0.82;;;47.40;22.50;;;;;;4976251;28;20050;-69
2023/08/07 07:13:22;;;;;;;3.47;0.88;;;46.10;23.20;;;;;;4971658;28;20041;-68
2023/08/07 07:15:53;;;;;;;2.00;1.10;;;44.20;24.30;;;;;;4976831;28;20437;-69
2023/08/07 07:18:19;;;;;;;1.95;0.77;;;42.20;25.50;;;;;;4976198;28;20033;-68
2023/08/07 07:20:45;;;;;;;1.10;1.00;;;40.10;27.10;;;;;;4976187;28;20035;-68
2023/08/07 07:23:11;;;;;;;1.45;0.82;;;38.50;28.40;;;;;;4974999;28;20018;-67
2023/08/07 07:25:37;;;;;;;0.98;0.85;;;37.00;30.00;;;;;;4974245;28;20031;-68
2023/08/07 07:28:03;;;;;;;0.93;0.80;;;35.90;31.60;;;;;;4974186;28;20102;-68
2023/08/07 07:30:28;;;;;;;1.75;0.90;;;34.90;33.00;;;;;;4974191;28;20634;-68
2023/08/07 07:32:54;;;;;;;1.10;0.65;;;34.10;34.00;;;;;;4974203;28;20060;-68
2023/08/07 07:35:20;;;;;;;1.10;0.90;;;33.60;35.00;;;;;;4974154;28;20042;-67
2023/08/07 07:37:46;;;;;;;0.82;0.80;;;33.30;35.00;;;;;;4976782;28;20027;-67
2023/08/07 07:40:12;;;;;;;1.38;0.75;;;32.80;35.70;;;;;;4980643;28;20469;-67
2023/08/07 07:42:38;;;;;;;1.25;0.63;;;32.50;36.40;;;;;;4980382;28;20098;-67
2023/08/07 07:45:05;;;;;;;0.95;0.70;;;32.20;36.40;;;;;;4980082;28;20110;-67
2023/08/07 07:47:31;;;;;;;2.70;1.00;;;32.00;36.40;;;;;;4980501;28;20035;-67
2023/08/07 07:50:08;;;;;;;1.50;0.80;;;31.70;36.80;;;;;;4980471;28;20038;-67
2023/08/07 07:52:34;;;;;;;3.95;1.10;;;31.40;37.20;;;;;;4979905;28;20031;-67
2023/08/07 07:55:00;;;;;;;1.55;0.90;;;31.30;37.80;;;;;;4980132;28;20085;-67
2023/08/07 07:57:29;;;;;;;1.40;0.88;;;31.10;38.60;;;;;;4979875;28;20023;-67
2023/08/07 07:59:57;;;;;;;2.03;0.80;;;31.00;39.20;;;;;;4980244;28;20027;-68
2023/08/07 08:02:26;;;;;;;2.35;0.80;;;30.90;39.60;;;;;;4980301;28;20033;-67
2023/08/07 08:04:52;;;;;;;2.15;0.77;;;30.90;39.20;;;;;;4979710;28;20026;-67
2023/08/07 08:07:18;;;;;;;1.98;0.90;;;30.80;39.60;;;;;;4979908;28;20026;-67
2023/08/07 08:09:47;;;;;;;1.58;0.80;;;30.70;39.80;;;;;;4979739;28;20030;-67
2023/08/07 08:12:15;;;;;;;0.77;0.77;;;30.70;39.80;;;;;;4979428;28;20078;-67
2023/08/07 08:14:43;;;;;;;1.08;0.80;;;30.60;40.00;;;;;;4979446;28;20181;-67
2023/08/07 08:17:11;;;;;;;1.33;0.70;;;30.60;39.80;;;;;;4979439;28;20023;-67
2023/08/07 08:19:37;;;;;;;3.38;0.90;;;30.60;39.40;;;;;;4979919;28;20110;-67
2023/08/07 08:22:04;;;;;;;1.60;0.82;;;30.50;39.50;;;;;;4979411;28;20027;-67
2023/08/07 08:24:31;;;;;;;2.22;0.80;;;30.40;39.40;;;;;;4979925;28;20033;-67
2023/08/07 08:26:57;;;;;;;2.83;0.85;;;30.40;39.10;;;;;;4979337;28;20038;-67
2023/08/07 08:29:27;;;;;;;0.60;0.60;;;30.30;39.20;;;;;;4979433;28;20027;-67
2023/08/07 08:31:55;;;;;;;0.77;0.70;;;30.20;39.40;;;;;;4979488;28;20054;-68
2023/08/07 08:34:21;;;;;;;0.40;0.40;;;30.20;39.50;;;;;;4978887;28;20030;-67
2023/08/07 08:36:48;;;;;;;1.45;0.60;;;30.20;38.80;;;;;;4978361;28;20393;-67
2023/08/07 08:39:14;;;;;;;1.25;0.43;;;30.20;38.30;;;;;;4978980;28;20019;-67
2023/08/07 08:41:42;;;;;;;0.47;0.47;;;30.20;38.40;;;;;;4979068;28;20105;-67
2023/08/07 08:44:11;;;;;;;1.45;0.50;;;30.20;38.10;;;;;;4978963;28;20015;-67
2023/08/07 08:46:39;;;;;;;1.33;0.52;;;30.20;38.20;;;;;;4977757;28;20027;-67
2023/08/07 08:49:07;;;;;;;1.80;0.70;;;30.20;37.40;;;;;;4977509;28;20050;-67
2023/08/07 08:51:33;;;;;;;0.50;0.50;;;30.20;37.40;;;;;;4978101;28;20042;-67
2023/08/07 08:54:01;;;;;;;0.82;0.73;;;30.20;37.40;;;;;;4977315;28;20024;-67
2023/08/07 08:56:28;;;;;;;2.70;0.77;;;30.10;37.70;;;;;;4977828;28;20086;-67
2023/08/07 08:58:54;;;;;;;0.57;0.55;;;30.00;37.30;;;;;;4977240;28;20489;-67
2023/08/07 09:01:21;;;;;;;1.00;0.60;;;30.00;37.70;;;;;;4976754;28;20057;-67
2023/08/07 09:03:47;;;;;;;0.57;0.57;;;30.00;37.70;;;;;;4976549;28;20523;-67
2023/08/07 09:06:14;;;;;;;0.60;0.60;;;30.10;37.60;;;;;;4978666;28;20043;-67
2023/08/07 09:08:44;;;;;;;1.65;0.60;;;30.20;37.30;;;;;;4978715;28;20035;-66
2023/08/07 09:11:13;;;;;;;1.83;0.82;;;30.10;37.00;;;;;;4978158;28;20085;-66
2023/08/07 09:13:45;;;;;;;3.10;1.08;;;30.00;37.10;;;;;;4978496;28;20407;-67
2023/08/07 09:16:12;;;;;;;2.20;1.10;;;29.90;37.50;;;;;;4978929;28;20500;-67
2023/08/07 09:18:38;;;;;;;1.98;1.08;;;29.90;37.90;;;;;;4977408;28;20087;-67
2023/08/07 09:21:04;;;;;;;1.40;1.00;;;29.90;38.00;;;;;;4978924;28;20022;-66
2023/08/07 09:23:31;;;;;;;1.13;0.93;;;29.90;37.50;;;;;;4978192;28;20041;-67
2023/08/07 09:26:08;;;;;;;1.23;0.70;;;29.90;37.70;;;;;;4977663;28;20074;-67
2023/08/07 09:28:43;;;;;;;2.72;0.70;;;29.90;37.20;;;;;;4978155;28;20090;-66
2023/08/07 09:31:15;;;;;;;0.82;0.80;;;29.90;37.00;;;;;;4978149;28;20081;-67
2023/08/07 09:33:42;;;;;;;0.80;0.60;;;29.90;36.80;;;;;;4978685;28;20031;-67
2023/08/07 09:36:13;;;;;;;1.55;0.80;;;29.90;37.20;;;;;;4977928;28;20054;-68
2023/08/07 09:38:38;;;;;;;0.80;0.70;;;29.90;37.00;;;;;;4978484;28;20019;-67
2023/08/07 09:41:19;;;;;;;0.60;0.60;;;30.00;36.80;;;;;;4978070;28;20027;-67
2023/08/07 09:43:51;;;;;;;1.25;0.68;;;29.90;36.70;;;;;;4977945;28;20035;-66
2023/08/07 09:46:19;;;;;;;1.27;0.75;;;29.90;36.80;;;;;;4977931;28;20037;-67
2023/08/07 09:48:45;;;;;;;0.82;0.73;;;30.00;36.40;;;;;;4978152;28;20062;-67
2023/08/07 09:51:11;;;;;;;3.35;0.82;;;29.90;36.10;;;;;;4977902;28;20029;-70
2023/08/07 09:53:40;;;;;;;1.80;0.93;;;29.90;36.10;;;;;;4977841;28;20026;-69
2023/08/07 09:56:08;;;;;;;0.95;0.80;;;29.80;36.10;;;;;;4977670;28;20093;-69
2023/08/07 09:58:36;;;;;;;2.75;1.00;;;29.80;35.90;;;;;;4977520;28;20040;-69
2023/08/07 10:01:06;;;;;;;1.52;1.17;;;29.70;36.50;;;;;;4977177;28;20027;-69
2023/08/07 10:03:34;;;;;;;2.15;1.20;;;29.80;36.50;;;;;;4977571;28;20400;-69
2023/08/07 10:06:03;;;;;;;1.77;1.27;;;29.70;36.30;;;;;;4978088;28;20425;-70
2023/08/07 10:08:30;;;;;;;2.28;1.25;;;29.70;36.00;;;;;;4977504;28;20110;-70
2023/08/07 10:10:59;;;;;;;2.22;1.60;;;29.50;36.00;;;;;;4976919;28;20091;-69
2023/08/07 10:13:28;;;;;;;1.80;1.55;;;29.50;36.20;;;;;;4977468;28;20354;-69
2023/08/07 10:15:55;;;;;;;2.33;1.40;;;29.50;36.30;;;;;;4977835;28;20038;-69
2023/08/07 10:18:22;;;;;;;3.42;1.40;;;29.50;36.40;;;;;;4977230;28;20434;-66
2023/08/07 10:20:51;;;;;;;1.10;1.00;;;29.50;35.90;;;;;;4977246;28;20030;-68
2023/08/07 10:23:17;;;;;;;1.70;1.30;;;29.50;35.90;;;;;;4977160;28;20149;-68
2023/08/07 10:25:48;;;;;;;2.72;1.25;;;29.40;35.90;;;;;;4977154;28;20030;-68
2023/08/07 10:28:20;;;;;;;2.15;1.05;;;29.30;36.40;;;;;;4977041;28;20445;-68
2023/08/07 10:30:49;;;;;;;1.20;0.90;;;29.30;36.50;;;;;;4977864;28;20062;-68
2023/08/07 10:33:20;;;;;;;1.67;0.88;;;29.20;36.50;;;;;;4977235;28;20089;-68
2023/08/07 10:35:49;;;;;;;0.80;0.80;;;29.20;36.80;;;;;;4977366;28;20097;-68
2023/08/07 10:38:18;;;;;;;2.53;0.93;;;29.20;37.00;;;;;;4976898;28;20022;-68
2023/08/07 10:41:13;;;;;;;2.30;1.05;;;29.20;36.80;;;;;;4977408;28;20073;-67
2023/08/07 10:43:44;;;;;;;1.05;0.85;;;29.20;36.20;;;;;;4977375;28;20102;-68
2023/08/07 10:46:19;;;;;;;2.20;0.80;;;29.10;37.00;;;;;;4976761;28;20374;-68
2023/08/07 10:48:53;;;;;;;1.33;0.85;;;29.10;36.90;;;;;;4977248;28;20034;-68
2023/08/07 10:51:35;;;;;;;1.13;0.73;;;29.10;36.80;;;;;;4977277;28;20031;-67
2023/08/07 10:54:07;;;;;;;1.92;0.88;;;29.10;36.60;;;;;;4976940;28;20113;-67
2023/08/07 10:56:43;;;;;;;0.45;0.45;;;29.00;36.60;;;;;;4977295;28;20083;-70
2023/08/07 10:59:19;;;;;;;0.52;0.52;;;29.10;36.10;;;;;;4976802;28;20037;-68
2023/08/07 11:01:51;;;;;;;0.40;0.40;;;29.20;35.50;;;;;;4977047;28;20058;-67
2023/08/07 11:04:31;;;;;;;0.50;0.50;;;29.20;34.50;;;;;;4976834;28;20098;-66
2023/08/07 11:06:57;;;;;;;0.30;0.30;;;29.30;34.40;;;;;;4976972;28;20381;-67
2023/08/07 11:09:25;;;;;;;0.38;0.30;;;29.30;33.20;;;;;;4976425;28;20023;-67
2023/08/07 11:11:52;;;;;;;0.60;0.60;;;29.30;32.80;;;;;;4975485;28;20039;-67
2023/08/07 11:14:20;;;;;;;0.70;0.52;;;29.30;32.80;;;;;;4976258;28;20087;-67
2023/08/07 11:16:49;;;;;;;0.50;0.50;;;29.30;33.00;;;;;;4976616;28;20057;-67
2023/08/07 11:19:17;;;;;;;0.40;0.40;;;29.40;33.40;;;;;;4976504;28;20074;-68
2023/08/07 11:21:43;;;;;;;1.27;0.45;;;29.40;33.50;;;;;;4976293;28;20015;-68
2023/08/07 11:24:14;;;;;;;0.98;0.55;;;29.50;33.60;;;;;;4976396;28;20068;-67
2023/08/07 11:26:42;;;;;;;0.60;0.40;;;29.50;33.40;;;;;;4976759;28;20022;-68
2023/08/07 11:29:10;;;;;;;0.80;0.60;;;29.60;33.10;;;;;;4976215;28;20023;-67
2023/08/07 11:31:40;;;;;;;0.65;0.50;;;29.60;32.70;;;;;;4976290;28;20040;-67
2023/08/07 11:34:10;;;;;;;0.60;0.50;;;29.50;32.50;;;;;;4976683;28;20038;-67
2023/08/07 11:36:43;;;;;;;0.40;0.40;;;29.50;32.60;;;;;;4976087;28;20029;-67
2023/08/07 11:39:10;;;;;;;;;;;29.50;32.10;;;;;;4976454;28;20361;-67
2023/08/07 11:41:38;;;;;;;1.20;0.40;;;29.50;32.10;;;;;;4976147;28;19921;-67
2023/08/07 11:44:08;;;;;;;0.50;0.50;;;29.50;32.50;;;;;;4976029;28;20023;-67
2023/08/07 11:46:37;;;;;;;1.38;0.50;;;29.40;32.80;;;;;;4976830;28;20030;-67
2023/08/07 11:49:05;;;;;;;0.85;0.47;;;29.50;32.60;;;;;;4975963;28;20118;-67
2023/08/07 11:51:33;;;;;;;0.40;0.40;;;29.40;32.80;;;;;;4976635;28;20106;-68
2023/08/07 11:54:03;;;;;;;0.82;0.47;;;29.40;32.40;;;;;;4975970;28;20023;-68
2023/08/07 11:56:29;;;;;;;1.40;0.80;;;29.30;32.50;;;;;;4975963;28;20038;-67
2023/08/07 11:58:57;;;;;;;2.20;0.60;;;29.20;32.80;;;;;;4976218;28;20058;-67
2023/08/07 12:01:29;;;;;;;0.93;0.50;;;29.10;33.00;;;;;;4976196;28;20101;-67
2023/08/07 12:04:08;;;;;;;1.15;0.68;;;29.10;33.20;;;;;;4975840;28;20027;-67
2023/08/07 12:06:43;;;;;;;1.25;0.85;;;29.10;33.60;;;;;;4975854;28;20361;-67
2023/08/07 12:09:12;;;;;;;0.50;0.50;;;29.10;33.60;;;;;;4975775;28;20037;-67
2023/08/07 12:11:41;;;;;;;0.70;0.60;;;29.20;33.80;;;;;;4975562;28;20083;-67
2023/08/07 12:14:06;;;;;;;1.40;0.70;;;29.10;34.10;;;;;;4975595;28;20031;-67
2023/08/07 12:16:34;;;;;;;0.60;0.55;;;29.20;34.10;;;;;;4975773;28;20461;-67
2023/08/07 12:19:03;;;;;;;1.63;0.50;;;29.20;33.80;;;;;;4975738;28;20041;-68
2023/08/07 12:21:32;;;;;;;1.58;0.50;;;29.20;33.70;;;;;;4975941;28;20038;-67
2023/08/07 12:24:00;;;;;;;1.05;0.50;;;29.20;33.80;;;;;;4978134;28;20030;-67
2023/08/07 12:26:28;;;;;;;2.17;0.50;;;29.20;34.30;;;;;;4979372;28;20089;-67
2023/08/07 12:28:54;;;;;;;1.25;0.68;;;29.30;34.40;;;;;;4979740;28;20109;-67
2023/08/07 12:31:22;;;;;;;1.08;0.65;;;29.30;34.10;;;;;;4979501;28;20054;-67
2023/08/07 12:33:48;;;;;;;0.70;0.68;;;29.40;33.60;;;;;;4979259;28;20124;-67
2023/08/07 12:36:14;;;;;;;0.40;0.40;;;29.20;33.50;;;;;;4979120;28;20066;-67
2023/08/07 12:38:41;;;;;;;0.60;0.60;;;29.10;33.60;;;;;;4979316;28;20110;-67
2023/08/07 12:41:09;;;;;;;0.85;0.60;;;29.00;33.80;;;;;;4979372;28;20173;-67
2023/08/07 12:43:38;;;;;;;0.60;0.50;;;28.90;33.90;;;;;;4979579;28;20061;-68
2023/08/07 12:46:05;;;;;;;1.38;0.88;;;28.90;33.70;;;;;;4979040;28;20027;-67
2023/08/07 12:48:34;;;;;;;1.40;0.95;;;28.90;33.70;;;;;;4979390;28;20045;-67
2023/08/07 12:51:02;;;;;;;0.63;0.60;;;28.90;33.60;;;;;;4978927;28;20023;-67
2023/08/07 12:53:29;;;;;;;0.63;0.60;;;28.90;33.50;;;;;;4977952;28;20363;-67
2023/08/07 12:55:57;;;;;;;1.95;0.73;;;28.90;33.50;;;;;;4979329;28;20026;-67
2023/08/07 12:58:25;;;;;;;1.08;0.68;;;28.90;33.50;;;;;;4979248;28;20110;-68
2023/08/07 13:00:52;;;;;;;1.20;0.57;;;28.90;33.40;;;;;;4978783;28;20065;-67